Time;durP1;ratioP1;P1;durP2;ratioP2;P2;SDS_P1;SDS_P2;PMS_P1;PMS_P2;Temp;Humidity;BMP_temperature;BMP_pressure;BME280_temperature;BME280_humidity;BME280_pressure;Samples;Min_cycle;Max_cycle;Signal;HPM_P1;HPM_P2
2023/09/03 00:00:16;;;;;;;33.40;28.50;;;;;;;14.39;100.00;102495.78;5065659;28;20028;-77
2023/09/03 00:02:42;;;;;;;33.97;27.50;;;;;;;14.40;100.00;102502.75;5060144;28;20032;-77
2023/09/03 00:05:07;;;;;;;32.95;27.13;;;;;;;14.30;100.00;102496.75;5066298;28;20375;-77
2023/09/03 00:07:33;;;;;;;31.63;26.75;;;;;;;14.27;100.00;102502.88;5059393;28;20033;-77
2023/09/03 00:09:58;;;;;;;33.58;27.70;;;;;;;14.24;100.00;102502.94;5065446;28;20384;-77
2023/09/03 00:12:23;;;;;;;30.33;26.20;;;;;;;14.21;100.00;102497.72;5061417;28;20044;-77
2023/09/03 00:14:48;;;;;;;31.73;26.52;;;;;;;14.19;100.00;102509.09;5062666;28;20062;-77
2023/09/03 00:17:14;;;;;;;35.10;28.23;;;;;;;14.17;100.00;102508.28;5063168;28;20035;-77
2023/09/03 00:19:41;;;;;;;33.35;27.88;;;;;;;14.13;100.00;102510.06;5061446;28;20048;-77
2023/09/03 00:22:06;;;;;;;34.38;26.55;;;;;;;14.09;100.00;102507.47;5062744;28;20375;-77
2023/09/03 00:24:33;;;;;;;31.05;26.60;;;;;;;14.08;100.00;102501.38;5061420;28;20029;-77
2023/09/03 00:26:58;;;;;;;33.70;27.83;;;;;;;14.04;100.00;102495.28;5067313;28;20017;-77
2023/09/03 00:29:23;;;;;;;33.60;27.50;;;;;;;14.03;100.00;102501.44;5064935;28;20044;-77
2023/09/03 00:31:49;;;;;;;34.13;28.35;;;;;;;14.06;100.00;102508.41;5066689;28;20050;-77
2023/09/03 00:34:14;;;;;;;35.70;28.02;;;;;;;14.01;100.00;102507.59;5066946;28;20063;-77
2023/09/03 00:36:40;;;;;;;35.90;27.33;;;;;;;14.01;100.00;102518.94;5064318;28;20021;-77
2023/09/03 00:39:06;;;;;;;29.98;26.60;;;;;;;13.95;100.00;102519.00;5067010;28;20107;-77
2023/09/03 00:41:31;;;;;;;31.17;26.63;;;;;;;13.98;100.00;102520.72;5066279;28;20387;-77
2023/09/03 00:43:57;;;;;;;33.28;27.67;;;;;;;13.98;100.00;102520.72;5063651;28;20099;-77
2023/09/03 00:46:23;;;;;;;36.03;27.35;;;;;;;13.92;100.00;102515.53;5073535;28;20516;-77
2023/09/03 00:48:50;;;;;;;34.08;26.73;;;;;;;13.97;100.00;102527.72;5074173;28;20033;-77
2023/09/03 00:51:16;;;;;;;33.60;27.08;;;;;;;13.97;100.00;102527.72;5074024;28;20159;-77
2023/09/03 00:53:47;;;;;;;30.85;26.88;;;;;;;13.96;100.00;102522.47;5074864;28;20170;-77
2023/09/03 00:56:13;;;;;;;30.98;26.60;;;;;;;13.93;100.00;102519.88;5071959;28;20154;-77
2023/09/03 00:58:39;;;;;;;29.95;25.85;;;;;;;13.94;100.00;102527.75;5069465;28;20107;-77
2023/09/03 01:01:05;;;;;;;33.45;25.88;;;;;;;13.91;100.00;102532.16;5072253;28;20044;-77
2023/09/03 01:03:31;;;;;;;30.27;25.83;;;;;;;13.90;100.00;102522.56;5068371;28;20029;-77
2023/09/03 01:05:56;;;;;;;30.67;25.48;;;;;;;13.88;100.00;102525.19;5072219;28;20021;-77
2023/09/03 01:08:22;;;;;;;32.00;25.13;;;;;;;13.89;100.00;102532.16;5074758;28;20020;-77
2023/09/03 01:11:27;;;;;;;31.13;24.65;;;;;;;13.87;100.00;102552.31;5070794;28;20024;-77
2023/09/03 01:14:08;;;;;;;27.25;23.02;;;;;;;13.86;100.00;102561.03;5063605;28;20031;-77
2023/09/03 01:16:44;;;;;;;29.77;25.08;;;;;;;13.79;100.00;102541.88;5070808;28;20130;-77
2023/09/03 01:19:28;;;;;;;29.35;22.33;;;;;;;13.79;100.00;102549.75;5074122;28;20059;-77
2023/09/03 01:22:04;;;;;;;28.83;23.25;;;;;;;13.73;100.00;102541.06;5070065;28;20081;-76
2023/09/03 01:24:44;;;;;;;26.05;23.33;;;;;;;13.73;100.00;102539.34;5072057;28;20115;-77
2023/09/03 01:27:24;;;;;;;31.45;23.80;;;;;;;13.71;100.00;102535.00;5073278;28;20119;-77
2023/09/03 01:29:50;;;;;;;26.10;22.63;;;;;;;13.67;100.00;102539.41;5057766;28;20492;-77
2023/09/03 01:32:17;;;;;;;27.67;23.13;;;;;;;13.69;100.00;102535.00;5072079;28;20040;-77
2023/09/03 01:34:44;;;;;;;26.88;22.98;;;;;;;13.70;100.00;102535.84;5071997;28;20063;-77
2023/09/03 01:37:11;;;;;;;28.23;22.92;;;;;;;13.67;100.00;102544.63;5070940;28;20056;-77
2023/09/03 01:39:36;;;;;;;29.20;23.33;;;;;;;13.68;100.00;102535.88;5073026;28;20028;-77
2023/09/03 01:42:01;;;;;;;27.05;22.52;;;;;;;13.67;100.00;102538.50;5068681;28;20465;-77
2023/09/03 01:44:27;;;;;;;30.35;23.17;;;;;;;13.64;100.00;102526.31;5071447;28;20040;-77
2023/09/03 01:47:05;;;;;;;29.45;22.80;;;;;;;13.61;100.00;102528.97;5070056;28;20154;-77
2023/09/03 01:49:48;;;;;;;27.13;22.92;;;;;;;13.61;100.00;102530.72;5063611;28;20052;-77
2023/09/03 01:52:29;;;;;;;25.23;22.17;;;;;;;13.55;100.00;102542.13;5063865;28;20029;-77
2023/09/03 01:54:58;;;;;;;28.13;22.30;;;;;;;13.53;100.00;102533.38;5073676;28;20028;-77
2023/09/03 01:57:35;;;;;;;28.15;22.83;;;;;;;13.52;100.00;102536.91;5070774;28;20094;-77
2023/09/03 02:00:07;;;;;;;26.75;22.02;;;;;;;13.44;100.00;102517.75;5072996;28;20027;-78
2023/09/03 02:02:33;;;;;;;28.23;22.27;;;;;;;13.48;100.00;102540.44;5070520;28;20032;-77
2023/09/03 02:04:58;;;;;;;27.90;22.48;;;;;;;13.46;100.00;102539.56;5073718;28;20028;-77
2023/09/03 02:07:24;;;;;;;25.42;22.13;;;;;;;13.45;100.00;102537.84;5070004;28;20561;-77
2023/09/03 02:09:49;;;;;;;23.33;20.83;;;;;;;13.41;100.00;102544.00;5072396;28;20024;-77
2023/09/03 02:12:16;;;;;;;26.55;20.58;;;;;;;13.32;100.00;102544.94;5072312;28;20384;-77
2023/09/03 02:14:42;;;;;;;28.58;21.10;;;;;;;13.33;100.00;102551.91;5069525;28;20028;-77
2023/09/03 02:17:09;;;;;;;26.60;21.83;;;;;;;13.33;100.00;102554.50;5073539;28;20037;-77
2023/09/03 02:19:34;;;;;;;24.50;21.40;;;;;;;13.33;100.00;102560.63;5068430;28;20025;-77
2023/09/03 02:21:59;;;;;;;29.85;22.52;;;;;;;13.31;100.00;102564.16;5072611;28;20038;-77
2023/09/03 02:24:25;;;;;;;27.85;22.88;;;;;;;13.30;100.00;102570.25;5068788;28;20037;-77
2023/09/03 02:26:50;;;;;;;27.00;21.90;;;;;;;13.28;100.00;102572.91;5073028;28;20032;-77
2023/09/03 02:29:15;;;;;;;27.15;23.02;;;;;;;13.26;100.00;102573.78;5068841;28;20494;-77
2023/09/03 02:31:41;;;;;;;26.88;21.55;;;;;;;13.24;100.00;102586.91;5071652;28;20105;-77
2023/09/03 02:34:07;;;;;;;28.95;20.70;;;;;;;13.20;100.00;102581.66;5069369;28;20067;-77
2023/09/03 02:36:34;;;;;;;24.95;21.80;;;;;;;13.14;100.00;102572.06;5070889;28;20040;-77
2023/09/03 02:39:00;;;;;;;28.73;22.15;;;;;;;13.16;100.00;102580.78;5069191;28;20027;-77
2023/09/03 02:41:26;;;;;;;27.02;22.70;;;;;;;13.16;100.00;102586.03;5071882;28;20115;-77
2023/09/03 02:43:52;;;;;;;25.42;22.02;;;;;;;13.16;100.00;102587.78;5065693;28;20024;-77
2023/09/03 02:46:17;;;;;;;29.23;22.52;;;;;;;13.14;100.00;102579.94;5069221;28;20036;-77
2023/09/03 02:48:42;;;;;;;25.98;22.77;;;;;;;13.06;100.00;102574.75;5066663;28;20513;-77
2023/09/03 02:51:08;;;;;;;26.23;23.42;;;;;;;13.02;100.00;102557.31;5056058;28;20628;-77
2023/09/03 02:53:33;;;;;;;29.38;23.52;;;;;;;13.03;100.00;102558.19;5072540;28;20466;-77
2023/09/03 02:55:58;;;;;;;28.13;23.38;;;;;;;13.03;100.00;102556.44;5071935;28;20039;-77
2023/09/03 02:58:24;;;;;;;30.85;23.05;;;;;;;13.01;100.00;102559.94;5070076;28;20024;-77
2023/09/03 03:00:50;;;;;;;26.33;22.80;;;;;;;13.02;100.00;102556.47;5071856;28;20023;-77
2023/09/03 03:03:15;;;;;;;28.77;23.92;;;;;;;13.01;100.00;102563.41;5069047;28;20025;-77
2023/09/03 03:05:40;;;;;;;27.67;23.23;;;;;;;13.03;100.00;102559.06;5071928;28;20107;-77
2023/09/03 03:08:08;;;;;;;30.10;24.85;;;;;;;13.07;100.00;102567.75;5068988;28;20067;-77
2023/09/03 03:10:33;;;;;;;29.75;23.20;;;;;;;13.06;100.00;102556.41;5071087;28;20025;-77
2023/09/03 03:12:59;;;;;;;29.27;24.25;;;;;;;13.11;100.00;102569.47;5068959;28;20035;-77
2023/09/03 03:15:24;;;;;;;31.13;22.92;;;;;;;13.09;100.00;102571.25;5071720;28;20037;-77
2023/09/03 03:17:49;;;;;;;27.27;22.45;;;;;;;13.08;100.00;102574.75;5067620;28;20024;-77
2023/09/03 03:20:14;;;;;;;28.45;23.15;;;;;;;13.09;100.00;102579.09;5071411;28;20028;-77
2023/09/03 03:22:40;;;;;;;30.48;22.00;;;;;;;13.03;100.00;102571.28;5068737;28;20024;-77
2023/09/03 03:25:06;;;;;;;24.55;21.85;;;;;;;12.96;100.00;102569.59;5069960;28;20028;-77
2023/09/03 03:27:31;;;;;;;26.00;21.77;;;;;;;12.89;100.00;102542.56;5070703;28;20043;-77
2023/09/03 03:29:56;;;;;;;26.60;22.20;;;;;;;12.88;100.00;102549.56;5068650;28;20048;-77
2023/09/03 03:32:22;;;;;;;27.95;23.23;;;;;;;12.88;100.00;102536.47;5071476;28;20380;-77
2023/09/03 03:34:47;;;;;;;28.85;23.75;;;;;;;12.92;100.00;102539.06;5066164;28;20128;-77
2023/09/03 03:37:12;;;;;;;27.60;22.25;;;;;;;12.89;100.00;102532.97;5072250;28;20035;-77
2023/09/03 03:39:38;;;;;;;28.83;22.42;;;;;;;12.86;100.00;102538.22;5066084;28;20033;-77
2023/09/03 03:42:03;;;;;;;29.17;23.33;;;;;;;12.84;100.00;102539.97;5071484;28;20104;-77
2023/09/03 03:44:28;;;;;;;28.60;22.23;;;;;;;12.86;100.00;102559.16;5065976;28;20490;-77
2023/09/03 03:46:54;;;;;;;30.08;23.08;;;;;;;12.88;100.00;102565.28;5070094;28;20036;-77
2023/09/03 03:49:19;;;;;;;28.70;23.33;;;;;;;12.91;100.00;102574.81;5067502;28;20369;-77
2023/09/03 03:51:44;;;;;;;28.27;23.05;;;;;;;12.87;100.00;102584.44;5069871;28;20067;-77
2023/09/03 03:54:10;;;;;;;27.88;22.70;;;;;;;12.87;100.00;102573.97;5068056;28;20060;-77
2023/09/03 03:56:35;;;;;;;28.90;23.67;;;;;;;12.84;100.00;102574.00;5071769;28;20071;-77
2023/09/03 03:59:00;;;;;;;31.65;23.58;;;;;;;12.86;100.00;102577.47;5067910;28;20028;-77
2023/09/03 04:01:25;;;;;;;27.90;22.65;;;;;;;12.86;100.00;102574.88;5075073;28;20052;-77
2023/09/03 04:03:52;;;;;;;27.27;21.90;;;;;;;12.80;100.00;102569.66;5072842;28;20444;-77
2023/09/03 04:06:18;;;;;;;30.77;23.70;;;;;;;12.83;100.00;102566.16;5074513;28;20391;-77
2023/09/03 04:08:44;;;;;;;30.55;23.83;;;;;;;12.83;100.00;102580.13;5072332;28;20028;-77
2023/09/03 04:11:11;;;;;;;34.72;25.15;;;;;;;12.85;100.00;102582.72;5075161;28;20039;-77
2023/09/03 04:13:37;;;;;;;35.28;25.38;;;;;;;12.86;100.00;102592.31;5071545;28;20033;-77
2023/09/03 04:16:14;;;;;;;31.48;23.15;;;;;;;12.83;100.00;102587.09;5074963;28;20024;-77
2023/09/03 04:18:39;;;;;;;28.77;23.25;;;;;;;12.78;100.00;102589.72;5071918;28;20016;-77
2023/09/03 04:21:05;;;;;;;27.58;23.27;;;;;;;12.80;100.00;102589.72;5074248;28;20032;-77
2023/09/03 04:23:30;;;;;;;25.50;21.30;;;;;;;12.76;100.00;102588.00;5071442;28;20069;-77
2023/09/03 04:25:57;;;;;;;28.60;22.48;;;;;;;12.73;100.00;102593.25;5074710;28;20069;-77
2023/09/03 04:28:24;;;;;;;33.63;23.48;;;;;;;12.78;100.00;102594.09;5071041;28;20170;-77
2023/09/03 04:30:56;;;;;;;30.05;23.80;;;;;;;12.77;100.00;102593.22;5074427;28;20031;-77
2023/09/03 04:33:22;;;;;;;29.98;23.65;;;;;;;12.80;100.00;102589.72;5071236;28;20541;-77
2023/09/03 04:35:47;;;;;;;29.25;22.95;;;;;;;12.79;100.00;102601.09;5073152;28;20024;-77
2023/09/03 04:38:13;;;;;;;29.50;23.40;;;;;;;12.78;100.00;102602.81;5071348;28;20056;-77
2023/09/03 04:40:38;;;;;;;29.60;23.42;;;;;;;12.78;100.00;102610.66;5073324;28;20384;-77
2023/09/03 04:43:05;;;;;;;30.25;22.73;;;;;;;12.73;100.00;102614.19;5070655;28;20032;-77
2023/09/03 04:45:31;;;;;;;32.85;24.52;;;;;;;12.75;100.00;102615.03;5072542;28;20079;-77
2023/09/03 04:47:58;;;;;;;30.50;25.08;;;;;;;12.75;100.00;102615.94;5072816;28;20147;-77
2023/09/03 04:50:23;;;;;;;28.77;24.65;;;;;;;12.72;100.00;102608.09;5070206;28;20380;-76
2023/09/03 04:52:49;;;;;;;29.00;23.88;;;;;;;12.71;100.00;102603.72;5074849;28;20024;-77
2023/09/03 04:55:15;;;;;;;30.27;24.48;;;;;;;12.72;100.00;102621.19;5074097;28;20032;-76
2023/09/03 04:57:41;;;;;;;32.55;25.13;;;;;;;12.75;100.00;102628.13;5071596;28;20033;-77
2023/09/03 05:00:07;;;;;;;28.17;23.52;;;;;;;12.73;100.00;102617.69;5074671;28;20544;-77
2023/09/03 05:02:36;;;;;;;33.20;25.40;;;;;;;12.77;100.00;102618.53;5070610;28;20096;-77
2023/09/03 05:05:01;;;;;;;32.72;25.17;;;;;;;12.79;100.00;102624.66;5074373;28;20021;-77
2023/09/03 05:07:27;;;;;;;34.05;24.65;;;;;;;12.82;100.00;102632.47;5071401;28;20380;-77
2023/09/03 05:09:56;;;;;;;29.85;23.85;;;;;;;12.80;100.00;102629.84;5073653;28;20372;-77
2023/09/03 05:12:22;;;;;;;33.75;25.45;;;;;;;12.80;100.00;102639.47;5072025;28;20162;-77
2023/09/03 05:14:47;;;;;;;30.92;23.88;;;;;;;12.78;100.00;102641.19;5072204;28;20487;-77
2023/09/03 05:17:13;;;;;;;29.23;23.85;;;;;;;12.83;100.00;102642.06;5073969;28;20024;-77
2023/09/03 05:19:39;;;;;;;30.23;24.33;;;;;;;12.86;100.00;102647.28;5070017;28;20372;-77
2023/09/03 05:22:05;;;;;;;34.88;24.20;;;;;;;12.86;100.00;102640.31;5074859;28;20024;-77
2023/09/03 05:24:30;;;;;;;29.95;24.67;;;;;;;12.89;100.00;102645.53;5068725;28;20039;-77
2023/09/03 05:26:55;;;;;;;30.20;24.65;;;;;;;12.96;100.00;102642.88;5074319;28;20028;-77
2023/09/03 05:29:21;;;;;;;32.97;24.70;;;;;;;13.00;100.00;102649.84;5070666;28;20026;-77
2023/09/03 05:31:46;;;;;;;30.40;24.77;;;;;;;13.00;100.00;102653.31;5072030;28;20491;-77
2023/09/03 05:34:12;;;;;;;29.65;24.48;;;;;;;13.08;100.00;102661.16;5068874;28;20043;-77
2023/09/03 05:36:37;;;;;;;30.38;23.88;;;;;;;13.11;100.00;102658.50;5072706;28;20025;-77
2023/09/03 05:39:03;;;;;;;30.30;24.02;;;;;;;13.16;100.00;102654.13;5069412;28;20086;-77
2023/09/03 05:41:28;;;;;;;30.85;25.33;;;;;;;13.20;100.00;102647.13;5072678;28;20042;-77
2023/09/03 05:43:54;;;;;;;32.78;25.55;;;;;;;13.22;100.00;102656.72;5069517;28;20037;-77
2023/09/03 05:46:19;;;;;;;33.40;25.98;;;;;;;13.25;100.00;102648.88;5071907;28;20109;-77
2023/09/03 05:48:49;;;;;;;31.30;26.35;;;;;;;13.32;100.00;102655.81;5068863;28;20047;-77
2023/09/03 05:51:14;;;;;;;33.22;27.20;;;;;;;13.35;100.00;102653.16;5072290;28;20499;-77
2023/09/03 05:53:39;;;;;;;39.03;31.15;;;;;;;13.39;100.00;102656.63;5072779;28;20036;-77
2023/09/03 05:56:12;;;;;;;35.55;30.13;;;;;;;13.46;100.00;102652.22;5073531;28;20028;-77
2023/09/03 05:58:38;;;;;;;36.95;30.15;;;;;;;13.48;100.00;102660.97;5069547;28;20523;-77
2023/09/03 06:01:05;;;;;;;36.28;30.23;;;;;;;13.48;100.00;102655.72;5073210;28;20052;-77
2023/09/03 06:03:30;;;;;;;37.63;30.33;;;;;;;13.57;100.00;102671.38;5070204;28;20483;-77
2023/09/03 06:05:55;;;;;;;37.05;29.50;;;;;;;13.61;100.00;102682.72;5072476;28;20107;-77
2023/09/03 06:08:20;;;;;;;37.90;30.65;;;;;;;13.62;100.00;102681.81;5070196;28;20028;-77
2023/09/03 06:10:46;;;;;;;39.90;30.08;;;;;;;13.62;100.00;102687.94;5073429;28;20124;-77
2023/09/03 06:13:11;;;;;;;40.13;33.28;;;;;;;13.64;100.00;102687.94;5069242;28;20040;-77
2023/09/03 06:15:37;;;;;;;38.17;30.90;;;;;;;13.64;100.00;102685.31;5072485;28;20028;-77
2023/09/03 06:18:02;;;;;;;40.60;31.67;;;;;;;13.64;100.00;102693.19;5069574;28;20105;-77
2023/09/03 06:20:27;;;;;;;38.22;31.35;;;;;;;13.67;100.00;102688.78;5071693;28;20028;-77
2023/09/03 06:22:53;;;;;;;37.72;31.50;;;;;;;13.66;100.00;102692.25;5068606;28;20407;-77
2023/09/03 06:25:18;;;;;;;36.72;31.02;;;;;;;13.68;100.00;102690.50;5072139;28;20028;-77
2023/09/03 06:27:43;;;;;;;37.70;29.67;;;;;;;13.72;100.00;102701.84;5069557;28;20037;-77
2023/09/03 06:30:09;;;;;;;37.13;30.75;;;;;;;13.75;100.00;102707.94;5071266;28;20032;-77
2023/09/03 06:32:36;;;;;;;37.90;31.02;;;;;;;13.79;100.00;102717.50;5071271;28;20032;-77
2023/09/03 06:35:04;;;;;;;37.90;31.92;;;;;;;13.82;100.00;102714.00;5068344;28;20110;-77
2023/09/03 06:37:30;;;;;;;42.05;33.80;;;;;;;13.86;100.00;102738.44;5073245;28;20028;-77
2023/09/03 06:39:55;;;;;;;38.83;33.15;;;;;;;13.85;100.00;102728.84;5062582;28;20396;-77
2023/09/03 06:42:21;;;;;;;39.35;32.47;;;;;;;13.87;100.00;102730.59;5072614;28;20036;-77
2023/09/03 06:44:46;;;;;;;37.80;32.33;;;;;;;13.89;100.00;102739.28;5063186;28;20110;-77
2023/09/03 06:47:11;;;;;;;40.22;33.33;;;;;;;13.90;100.00;102740.19;5064855;28;20032;-79
2023/09/03 06:49:37;;;;;;;40.55;34.03;;;;;;;13.93;100.00;102748.91;5063694;28;20468;-77
2023/09/03 06:52:02;;;;;;;40.03;33.67;;;;;;;13.88;100.00;102731.44;5063698;28;20075;-77
2023/09/03 06:54:28;;;;;;;42.25;34.35;;;;;;;13.97;100.00;102744.50;5071951;28;20483;-77
2023/09/03 06:56:53;;;;;;;41.47;34.13;;;;;;;13.95;100.00;102741.00;5071725;28;20059;-77
2023/09/03 06:59:23;;;;;;;41.10;34.78;;;;;;;13.98;100.00;102746.22;5069239;28;20025;-77
2023/09/03 07:01:49;;;;;;;42.92;36.05;;;;;;;14.05;100.00;102763.66;5071733;28;20033;-77
2023/09/03 07:04:14;;;;;;;46.75;37.60;;;;;;;14.08;100.00;102750.50;5068586;28;20033;-77
2023/09/03 07:06:40;;;;;;;46.55;36.83;;;;;;;14.10;100.00;102750.53;5072618;28;20514;-77
2023/09/03 07:09:05;;;;;;;43.20;36.35;;;;;;;14.17;100.00;102750.44;5067841;28;20033;-77
2023/09/03 07:11:30;;;;;;;42.05;34.88;;;;;;;14.24;100.00;102756.50;5072262;28;20103;-77
2023/09/03 07:13:56;;;;;;;45.22;35.88;;;;;;;14.33;100.00;102758.19;5068586;28;20479;-77
2023/09/03 07:16:21;;;;;;;41.53;35.60;;;;;;;14.43;100.00;102757.22;5070512;28;20103;-77
2023/09/03 07:18:46;;;;;;;42.90;35.92;;;;;;;14.48;100.00;102768.53;5068390;28;20028;-77
2023/09/03 07:21:12;;;;;;;41.60;36.05;;;;;;;14.52;100.00;102772.94;5071367;28;20487;-77
2023/09/03 07:23:37;;;;;;;40.40;33.92;;;;;;;14.57;100.00;102768.50;5067730;28;20104;-77
2023/09/03 07:26:10;;;;;;;42.08;34.53;;;;;;;14.64;100.00;102764.91;5071135;28;20502;-77
2023/09/03 07:28:37;;;;;;;40.28;34.38;;;;;;;14.67;100.00;102764.03;5065658;28;20032;-77
2023/09/03 07:31:02;;;;;;;42.08;35.78;;;;;;;14.82;100.00;102777.00;5070540;28;20048;-77
2023/09/03 07:33:28;;;;;;;41.38;35.25;;;;;;;14.92;100.00;102768.13;5067628;28;20475;-77
2023/09/03 07:35:53;;;;;;;40.42;33.80;;;;;;;15.04;100.00;102774.13;5070524;28;20028;-77
2023/09/03 07:38:19;;;;;;;43.97;34.83;;;;;;;15.11;100.00;102771.44;5066787;28;20036;-77
2023/09/03 07:40:44;;;;;;;38.67;33.45;;;;;;;15.22;100.00;102773.91;5070487;28;20028;-77
2023/09/03 07:43:09;;;;;;;38.88;33.80;;;;;;;15.29;100.00;102775.59;5067574;28;20033;-77
2023/09/03 07:45:35;;;;;;;42.75;34.17;;;;;;;15.39;100.00;102785.09;5070769;28;20384;-77
2023/09/03 07:48:00;;;;;;;43.67;34.17;;;;;;;15.44;100.00;102780.66;5069295;28;20094;-77
2023/09/03 07:50:28;;;;;;;41.65;35.40;;;;;;;15.50;100.00;102782.34;5068542;28;20027;-77
2023/09/03 07:52:53;;;;;;;44.28;35.38;;;;;;;15.57;100.00;102794.50;5070636;28;20121;-74
2023/09/03 07:55:19;;;;;;;43.00;35.20;;;;;;;15.68;100.00;102790.00;5071488;28;20494;-77
2023/09/03 07:57:44;;;;;;;45.05;35.88;;;;;;;15.82;100.00;102791.56;5068272;28;20043;-77
2023/09/03 08:00:10;;;;;;;43.83;35.33;;;;;;;15.91;100.00;102787.03;5070659;28;20162;-77
2023/09/03 08:02:35;;;;;;;41.72;35.25;;;;;;;16.04;100.00;102782.47;5068533;28;20067;-77
2023/09/03 08:05:01;;;;;;;40.20;34.25;;;;;;;16.11;100.00;102778.84;5070747;28;20052;-77
2023/09/03 08:07:27;;;;;;;38.80;33.30;;;;;;;16.24;100.00;102778.66;5068042;28;20017;-77
2023/09/03 08:09:52;;;;;;;37.30;33.28;;;;;;;16.33;100.00;102783.75;5070869;28;20032;-77
2023/09/03 08:12:17;;;;;;;40.90;34.28;;;;;;;16.47;100.00;102788.78;5069268;28;20361;-77
2023/09/03 08:14:44;;;;;;;38.03;31.00;;;;;;;16.60;100.00;102785.03;5068427;28;20120;-77
2023/09/03 08:17:09;;;;;;;36.60;31.73;;;;;;;16.70;100.00;102780.47;5072113;28;20035;-77
2023/09/03 08:19:35;;;;;;;36.90;32.38;;;;;;;16.75;100.00;102776.03;5065654;28;20112;-77
2023/09/03 08:22:00;;;;;;;31.55;28.30;;;;;;;16.89;100.00;102781.91;5072229;28;20021;-77
2023/09/03 08:24:27;;;;;;;33.35;28.63;;;;;;;17.02;100.00;102775.50;5066627;28;20124;-77
2023/09/03 08:26:52;;;;;;;31.73;28.30;;;;;;;17.16;100.00;102782.25;5057413;28;20198;-77
2023/09/03 08:29:18;;;;;;;30.70;27.48;;;;;;;17.23;100.00;102770.69;5067387;28;20442;-77
2023/09/03 08:31:43;;;;;;;31.25;27.95;;;;;;;17.34;100.00;102776.63;5069905;28;20433;-77
2023/09/03 08:34:09;;;;;;;32.10;28.13;;;;;;;17.43;100.00;102776.44;5066803;28;20427;-77
2023/09/03 08:36:34;;;;;;;29.83;26.73;;;;;;;17.53;100.00;102780.59;5069478;28;20028;-77
2023/09/03 08:39:01;;;;;;;30.25;26.77;;;;;;;17.60;100.00;102776.06;5067430;28;20029;-77
2023/09/03 08:41:27;;;;;;;28.92;25.75;;;;;;;17.65;100.00;102775.94;5069009;28;20035;-77
2023/09/03 08:43:56;;;;;;;31.25;26.23;;;;;;;17.79;100.00;102781.81;5067001;28;20107;-77
2023/09/03 08:46:25;;;;;;;26.77;23.90;;;;;;;17.90;100.00;102781.56;5070909;28;20020;-77
2023/09/03 08:48:52;;;;;;;25.67;23.08;;;;;;;17.99;100.00;102779.56;5069265;28;20044;-77
2023/09/03 08:51:17;;;;;;;23.88;21.33;;;;;;;18.10;100.00;102783.72;5073388;28;20029;-77
2023/09/03 08:53:44;;;;;;;24.15;21.73;;;;;;;18.25;100.00;102784.22;5074619;28;20029;-77
2023/09/03 08:56:10;;;;;;;26.23;22.05;;;;;;;18.39;100.00;102786.50;5073672;28;20024;-77
2023/09/03 08:58:35;;;;;;;24.23;21.77;;;;;;;18.62;100.00;102785.06;5071182;28;20032;-77
2023/09/03 09:01:01;;;;;;;21.40;18.95;;;;;;;18.65;100.00;102788.47;5074077;28;20020;-77
2023/09/03 09:03:28;;;;;;;22.20;18.98;;;;;;;18.81;100.00;102788.13;5070775;28;20387;-77
2023/09/03 09:05:55;;;;;;;21.70;18.65;;;;;;;18.95;100.00;102789.44;5074978;28;20020;-77
2023/09/03 09:08:23;;;;;;;20.45;18.33;;;;;;;19.10;100.00;102790.81;5070408;28;20519;-77
2023/09/03 09:10:51;;;;;;;20.08;17.88;;;;;;;19.16;100.00;102785.34;5073778;28;20108;-77
2023/09/03 09:13:23;;;;;;;20.10;17.92;;;;;;;19.31;100.00;102794.59;5068179;28;20037;-77
2023/09/03 09:15:48;;;;;;;18.17;16.23;;;;;;;19.36;100.00;102787.41;5072878;28;20017;-77
2023/09/03 09:18:14;;;;;;;18.83;16.15;;;;;;;19.41;100.00;102785.47;5070675;28;20101;-78
2023/09/03 09:20:40;;;;;;;18.35;16.42;;;;;;;19.52;100.00;102785.19;5073279;28;20028;-77
2023/09/03 09:23:07;;;;;;;18.00;15.45;;;;;;;19.66;100.00;102790.06;5069637;28;20016;-77
2023/09/03 09:25:35;;;;;;;16.67;14.98;;;;;;;19.75;100.00;102787.16;5072775;28;20460;-78
2023/09/03 09:28:10;;;;;;;18.73;14.85;;;;;;;19.84;100.00;102783.34;5069904;28;20342;-77
2023/09/03 09:30:35;;;;;;;17.08;15.15;;;;;;;19.84;100.00;102783.34;5071888;28;20032;-77
2023/09/03 09:33:06;;;;;;;13.95;12.52;;;;;;;19.84;100.00;102776.25;5069816;28;20036;-77
2023/09/03 09:35:31;;;;;;;13.77;12.25;;;;;;;19.97;100.00;102781.16;5072387;28;20514;-77
2023/09/03 09:38:07;;;;;;;12.60;11.00;;;;;;;20.14;100.00;102781.47;5069869;28;20120;-77
2023/09/03 09:40:36;;;;;;;13.27;10.70;;;;;;;20.38;100.00;102778.94;5066273;28;20476;-77
2023/09/03 09:43:03;;;;;;;14.02;11.93;;;;;;;20.42;100.00;102769.97;5070869;28;20036;-77
2023/09/03 09:45:30;;;;;;;12.57;11.38;;;;;;;20.47;100.00;102768.00;5070694;28;20024;-77
2023/09/03 09:48:04;;;;;;;14.85;13.00;;;;;;;20.51;100.00;102775.84;5071497;28;20044;-77
2023/09/03 09:50:37;;;;;;;13.15;11.65;;;;;;;20.53;100.00;102774.00;5070102;28;20031;-77
2023/09/03 09:53:03;;;;;;;15.52;12.40;;;;;;;20.64;100.00;102767.47;5074292;28;20074;-77
2023/09/03 09:55:31;;;;;;;13.50;12.07;;;;;;;20.67;100.00;102759.41;5073571;28;20575;-77
2023/09/03 09:57:57;;;;;;;11.75;10.48;;;;;;;20.76;100.00;102765.25;5065059;28;20834;-77
2023/09/03 10:00:32;;;;;;;13.05;10.57;;;;;;;20.64;100.00;102762.19;5073332;28;20042;-77
2023/09/03 10:02:59;;;;;;;12.13;10.60;;;;;;;20.60;100.00;102765.81;5070021;28;20028;-77
2023/09/03 10:05:25;;;;;;;13.73;12.35;;;;;;;20.54;100.00;102765.16;5072700;28;20034;-78
2023/09/03 10:07:51;;;;;;;12.75;11.43;;;;;;;20.68;100.00;102762.00;5069892;28;20092;-77
2023/09/03 10:10:17;;;;;;;13.23;11.73;;;;;;;20.63;100.00;102763.06;5072882;28;20025;-77
2023/09/03 10:12:43;;;;;;;12.05;10.90;;;;;;;20.62;100.00;102764.00;5068913;28;20036;-77
2023/09/03 10:15:09;;;;;;;12.48;11.27;;;;;;;20.62;100.00;102762.22;5072824;28;20376;-77
2023/09/03 10:17:37;;;;;;;11.27;10.00;;;;;;;20.65;100.00;102764.75;5070121;28;20032;-77
2023/09/03 10:20:05;;;;;;;11.60;9.52;;;;;;;20.68;100.00;102767.31;5071867;28;20074;-78
2023/09/03 10:22:31;;;;;;;10.98;9.27;;;;;;;20.81;100.00;102763.28;5071073;28;20120;-77
2023/09/03 10:25:08;;;;;;;11.68;9.80;;;;;;;21.01;100.00;102764.34;5070369;28;20108;-78
2023/09/03 10:27:38;;;;;;;10.65;8.95;;;;;;;21.02;100.00;102763.41;5070299;28;20024;-77
2023/09/03 10:30:09;;;;;;;10.50;8.80;;;;;;;21.07;100.00;102765.91;5070661;28;20032;-78
2023/09/03 10:32:36;;;;;;;11.88;10.40;;;;;;;21.12;100.00;102767.44;5071644;28;20029;-77
2023/09/03 10:35:12;;;;;;;11.25;10.07;;;;;;;21.36;100.00;102764.84;5065028;28;20025;-78
2023/09/03 10:37:38;;;;;;;12.10;9.73;;;;;;;21.57;100.00;102764.00;5068561;28;20357;-77
2023/09/03 10:40:19;;;;;;;9.68;8.68;;;;;;;21.84;100.00;102759.38;5060874;28;20141;-78
2023/09/03 10:42:44;;;;;;;9.63;8.02;;;;;;;21.97;100.00;102750.00;5068818;28;20039;-77
2023/09/03 10:45:12;;;;;;;11.57;8.77;;;;;;;22.14;100.00;102756.41;5061219;28;20060;-78
2023/09/03 10:47:56;;;;;;;10.02;8.95;;;;;;;22.32;100.00;102760.09;5067740;28;20395;-77
2023/09/03 10:50:40;;;;;;;;;;;;;;;22.42;100.00;102756.09;5059285;28;20036;-77
2023/09/03 10:53:05;;;;;;;;;;;;;;;22.58;100.00;102769.59;5072344;28;20016;-77
2023/09/03 10:55:31;;;;;;;8.50;7.63;;;;;;;22.53;100.00;102761.84;5071644;28;20003;-77
2023/09/03 10:58:23;;;;;;;7.13;6.43;;;;;;;22.62;100.00;102761.41;5065410;28;20049;-77
2023/09/03 11:01:18;;;;;;;9.70;7.28;;;;;;;22.65;100.00;102766.59;5071527;28;20028;-77